Awaji Maru — JD2988 — position and weather

sailwx.info

Track history (hours):
 
Tides and Currents Weather Stations Pressure Air Temp Water Temp Dewpoint Dewpoint Depression Visibility Wind Speed Wind Dir Waves Ship Positions

Awaji Maru

Last reported at 2014-Jul-28 20:33 UTC. Time now 2014-Jul-28 20:36 UTC.
Position N 35°27' E 139°38'.

Length 37 m; draft 3 m.

Type: Tug. MMSI: 431001074.

Date/timePositionNaut miles runAvg speedWind from/ knotsBaromVisibWave heightAir tempDewpointWater temp
2014-Jul-28 20:33N 35°27' E 139°38'0 0.0
2014-Jul-28 19:33N 35°27' E 139°38'0 0.0
2014-Jul-28 18:33N 35°27' E 139°38'0 0.0
2014-Jul-28 17:33N 35°27' E 139°38'0 0.0
2014-Jul-28 16:33N 35°27' E 139°38'0 0.0
2014-Jul-28 15:33N 35°27' E 139°38'0 0.0
2014-Jul-28 14:33N 35°27' E 139°38'0 0.0
2014-Jul-28 13:33N 35°27' E 139°38'0 0.0
2014-Jul-28 12:33N 35°27' E 139°38'0 0.0
2014-Jul-28 11:33N 35°27' E 139°38'0 0.0
2014-Jul-28 10:33N 35°27' E 139°38'1 1.3
2014-Jul-28 09:33N 35°27' E 139°40'6 5.9
2014-Jul-28 08:33N 35°30' E 139°47'1 1.3
2014-Jul-28 07:34N 35°29' E 139°46'3 2.8
2014-Jul-28 06:33N 35°27' E 139°43'2 2.0
2014-Jul-28 05:33N 35°26' E 139°41'2 2.3
2014-Jul-28 04:34N 35°27' E 139°38'0 0.0
2014-Jul-28 03:34N 35°27' E 139°38'0 0.0
2014-Jul-28 02:34N 35°27' E 139°38'0 0.0
2014-Jul-28 01:33N 35°27' E 139°38'0 0.0
2014-Jul-28 00:33N 35°27' E 139°38'0 0.0
2014-Jul-27 23:34N 35°27' E 139°38'2 2.2
2014-Jul-27 22:34N 35°28' E 139°41'4 3.6
2014-Jul-27 21:34N 35°26' E 139°45'5 4.8
2014-Jul-27 20:34N 35°27' E 139°39'1 0.5
2014-Jul-27 19:33N 35°27' E 139°39'0 0.0
2014-Jul-27 18:33N 35°27' E 139°39'0 0.0
2014-Jul-27 17:33N 35°27' E 139°39'0 0.0
2014-Jul-27 16:34N 35°27' E 139°39'0 0.0
2014-Jul-27 15:33N 35°27' E 139°39'0 0.0
2014-Jul-27 14:34N 35°27' E 139°39'0 0.0
2014-Jul-27 13:34N 35°27' E 139°39'0 0.0
2014-Jul-27 12:33N 35°27' E 139°39'4 3.5
2014-Jul-27 11:34N 35°27' E 139°43'2 2.1
2014-Jul-27 10:34N 35°29' E 139°45'2 2.2
2014-Jul-27 09:34N 35°27' E 139°46'2 2.2
2014-Jul-27 08:34N 35°29' E 139°44'1 1.3
2014-Jul-27 07:33N 35°29' E 139°46'2 2.0
2014-Jul-27 06:34N 35°31' E 139°46'1 1.0
2014-Jul-27 05:34N 35°30' E 139°46'2 2.5
2014-Jul-27 04:33N 35°28' E 139°44'0 0.0
2014-Jul-27 03:33N 35°28' E 139°44'2 2.4
2014-Jul-27 02:34N 35°26' E 139°46'3 2.9
2014-Jul-27 01:34N 35°27' E 139°42'0 0.1
2014-Jul-27 00:34N 35°27' E 139°42'1 0.6
2014-Jul-26 23:33N 35°28' E 139°42'1 0.6
2014-Jul-26 22:33N 35°27' E 139°42'0 0.0
2014-Jul-26 21:34N 35°27' E 139°42'1 1.0
2014-Jul-26 20:34N 35°27' E 139°41'2 2.0
2014-Jul-26 19:34N 35°27' E 139°39'0 0.0
2014-Jul-26 18:34N 35°27' E 139°39'0 0.0
2014-Jul-26 17:34N 35°27' E 139°39'0 0.0
2014-Jul-26 16:34N 35°27' E 139°39'0 0.0
2014-Jul-26 15:33N 35°27' E 139°39'0 0.0
2014-Jul-26 14:33N 35°27' E 139°39'0 0.0
2014-Jul-26 13:34N 35°27' E 139°39'0 0.0
2014-Jul-26 12:34N 35°27' E 139°39'0 0.1
2014-Jul-26 11:34N 35°27' E 139°38'2 2.4
2014-Jul-26 10:34N 35°26' E 139°41'1 1.4
2014-Jul-26 09:34N 35°28' E 139°41'1 0.9
2014-Jul-26 08:34N 35°28' E 139°42'1 1.2
2014-Jul-26 07:34N 35°28' E 139°40'0 0.2
2014-Jul-26 06:34N 35°28' E 139°40'0 0.2
2014-Jul-26 05:34N 35°28' E 139°41'0 0.4
2014-Jul-26 04:33N 35°27' E 139°41'2 2.2
2014-Jul-26 03:34N 35°25' E 139°42'1 0.5
2014-Jul-26 02:34N 35°26' E 139°41'2 1.7
2014-Jul-26 01:34N 35°24' E 139°41'3 3.4
2014-Jul-26 00:33N 35°27' E 139°40'0 0.2
2014-Jul-25 23:34N 35°28' E 139°41'0 0.0
2014-Jul-25 22:34N 35°28' E 139°41'0 0.0
2014-Jul-25 21:33N 35°28' E 139°41'2 1.7
2014-Jul-25 20:34N 35°27' E 139°38'0 0.0
2014-Jul-25 19:33N 35°27' E 139°38'0 0.0
2014-Jul-25 18:33N 35°27' E 139°38'0 0.0
2014-Jul-25 17:33N 35°27' E 139°38'0 0.0
2014-Jul-25 16:34N 35°27' E 139°38'0 0.0
2014-Jul-25 15:34N 35°27' E 139°38'0 0.0
2014-Jul-25 14:34N 35°27' E 139°38'0 0.0
2014-Jul-25 13:34N 35°27' E 139°38'0 0.0
2014-Jul-25 12:33N 35°27' E 139°38'0 0.0
2014-Jul-25 11:34N 35°27' E 139°38'0 0.0
2014-Jul-25 10:33N 35°27' E 139°38'2 2.0
2014-Jul-25 09:33N 35°27' E 139°41'2 2.5
2014-Jul-25 08:34N 35°26' E 139°44'2 1.6
2014-Jul-25 07:34N 35°27' E 139°42'0 0.0
2014-Jul-25 06:34N 35°27' E 139°42'2 2.1
2014-Jul-25 05:34N 35°25' E 139°41'2 1.8
2014-Jul-25 04:33N 35°26' E 139°42'2 2.4
2014-Jul-25 03:34N 35°28' E 139°44'1 1.0
2014-Jul-25 02:33N 35°27' E 139°44'2 1.5
2014-Jul-25 01:34N 35°29' E 139°46'2 2.3
2014-Jul-25 00:33N 35°31' E 139°46'1 0.7
2014-Jul-24 23:34N 35°31' E 139°46'7 7.1
2014-Jul-24 22:34N 35°28' E 139°39'0 0.1
2014-Jul-24 21:33N 35°27' E 139°38'0 0.0
2014-Jul-24 20:34N 35°27' E 139°38'0 0.0
2014-Jul-24 19:34N 35°27' E 139°38'0 0.0
2014-Jul-24 18:34N 35°27' E 139°38'0 0.0
2014-Jul-24 17:34N 35°27' E 139°38'0 0.0
2014-Jul-24 16:34N 35°27' E 139°38'0 0.0
2014-Jul-24 15:34N 35°27' E 139°38'0 0.0
2014-Jul-24 14:34N 35°27' E 139°38'0 0.0
2014-Jul-24 13:34N 35°27' E 139°38'0 0.0
2014-Jul-24 12:34N 35°27' E 139°38'0 0.0
2014-Jul-24 11:34N 35°27' E 139°38'0 0.0
2014-Jul-24 10:33N 35°27' E 139°38'0 0.0
2014-Jul-24 09:34N 35°27' E 139°38'2 2.3
2014-Jul-24 08:33N 35°27' E 139°41'3 3.1
2014-Jul-24 07:33N 35°25' E 139°39'2 1.8
2014-Jul-24 06:34N 35°24' E 139°40'1 1.3
2014-Jul-24 05:34N 35°22' E 139°41'6 5.6
2014-Jul-24 04:33N 35°28' E 139°42'2 1.7
2014-Jul-24 03:34N 35°27' E 139°43'2 2.5
2014-Jul-24 02:33N 35°28' E 139°40'0 0.0
2014-Jul-24 01:34N 35°28' E 139°40'0 0.0
2014-Jul-24 00:34N 35°28' E 139°40'0 0.0
2014-Jul-23 23:34N 35°28' E 139°40'3 2.7
2014-Jul-23 22:33N 35°29' E 139°43'3 2.9
2014-Jul-23 21:34N 35°27' E 139°45'5 4.6
2014-Jul-23 20:34N 35°27' E 139°39'1 0.5
2014-Jul-23 19:34N 35°27' E 139°39'0 0.0
2014-Jul-23 18:34N 35°27' E 139°39'0 0.0
2014-Jul-23 17:33N 35°27' E 139°39'0 0.0
2014-Jul-23 16:33N 35°27' E 139°39'0 0.0
2014-Jul-23 15:33N 35°27' E 139°39'0 0.0
2014-Jul-23 14:34N 35°27' E 139°39'0 0.0
2014-Jul-23 13:34N 35°27' E 139°39'0 0.0
2014-Jul-23 12:34N 35°27' E 139°39'1 0.8
2014-Jul-23 11:34N 35°27' E 139°40'2 1.9
2014-Jul-23 10:34N 35°26' E 139°43'3 2.6
2014-Jul-23 09:34N 35°27' E 139°39'0 0.0
2014-Jul-23 08:33N 35°27' E 139°39'2 1.6
2014-Jul-23 07:34N 35°27' E 139°41'1 1.1
2014-Jul-23 06:34N 35°28' E 139°40'0 0.1
2014-Jul-23 05:34N 35°28' E 139°40'0 0.0
2014-Jul-23 04:33N 35°28' E 139°40'2 1.8
2014-Jul-23 03:34N 35°29' E 139°42'4 4.0
2014-Jul-23 02:34N 35°31' E 139°46'2 2.0
2014-Jul-23 01:34N 35°30' E 139°47'4 4.4
2014-Jul-23 00:34N 35°27' E 139°43'2 2.2
2014-Jul-22 23:34N 35°28' E 139°40'1 1.5
2014-Jul-22 22:34N 35°28' E 139°39'0 0.2
2014-Jul-22 21:33N 35°27' E 139°38'0 0.0
2014-Jul-22 20:33N 35°27' E 139°38'0 0.0
2014-Jul-22 19:34N 35°27' E 139°38'0 0.0
2014-Jul-22 18:34N 35°27' E 139°38'0 0.0
2014-Jul-22 17:34N 35°27' E 139°38'0 0.0
2014-Jul-22 16:34N 35°27' E 139°38'0 0.0
2014-Jul-22 15:34N 35°27' E 139°38'0 0.0
2014-Jul-22 14:34N 35°27' E 139°38'0 0.0
2014-Jul-22 13:34N 35°27' E 139°38'0 0.0
2014-Jul-22 12:33N 35°27' E 139°38'0 0.0
2014-Jul-22 11:34N 35°27' E 139°38'0 0.0
2014-Jul-22 10:34N 35°27' E 139°38'0 0.0
2014-Jul-22 09:34N 35°27' E 139°38'0 0.0
2014-Jul-22 08:33N 35°27' E 139°38'0 0.4
2014-Jul-22 07:34N 35°28' E 139°39'6 6.3
2014-Jul-22 06:34N 35°30' E 139°46'4 4.3
2014-Jul-22 05:34N 35°27' E 139°43'2 1.7
2014-Jul-22 04:34N 35°28' E 139°44'0 0.2
2014-Jul-22 03:34N 35°28' E 139°44'1 1.5
2014-Jul-22 02:33N 35°27' E 139°45'2 1.6
2014-Jul-22 01:33N 35°28' E 139°44'0 0.3
2014-Jul-22 00:33N 35°28' E 139°43'3 3.3
2014-Jul-21 23:34N 35°27' E 139°39'0 0.0
2014-Jul-21 22:33N 35°27' E 139°39'0 0.0
2014-Jul-21 21:33N 35°27' E 139°39'1 0.8
2014-Jul-21 20:34N 35°27' E 139°38'0 0.0
2014-Jul-21 20:18N 35°27' E 139°38'0 0.0
2014-Jul-21 19:34N 35°27' E 139°38'0 0.0
2014-Jul-21 18:34N 35°27' E 139°38'0 0.0
2014-Jul-21 17:33N 35°27' E 139°38'0 0.0
2014-Jul-21 16:34N 35°27' E 139°38'0 0.0
2014-Jul-21 15:34N 35°27' E 139°38'0 0.0
2014-Jul-21 14:34N 35°27' E 139°38'0 0.0
2014-Jul-21 13:34N 35°27' E 139°38'0 0.0
2014-Jul-21 12:34N 35°27' E 139°38'0 0.0
2014-Jul-21 11:34N 35°27' E 139°38'0 0.0
2014-Jul-21 10:34N 35°27' E 139°38'0 0.0
2014-Jul-21 09:33N 35°27' E 139°38'0 0.0
2014-Jul-21 08:33N 35°27' E 139°38'0 0.0
2014-Jul-21 07:33N 35°27' E 139°38'3 2.7
2014-Jul-21 06:33N 35°25' E 139°39'2 2.2
2014-Jul-21 05:33N 35°23' E 139°41'0 0.4
2014-Jul-21 04:34N 35°23' E 139°40'0 0.0
2014-Jul-21 03:34N 35°23' E 139°40'0 0.0
2014-Jul-21 02:34N 35°23' E 139°40'5 5.2
2014-Jul-21 01:34N 35°28' E 139°43'0 0.1
2014-Jul-21 00:33N 35°28' E 139°43'1 1.4
2014-Jul-20 23:33N 35°26' E 139°44'2 1.7
2014-Jul-20 22:34N 35°27' E 139°42'1 1.0
2014-Jul-20 21:34N 35°27' E 139°41'2 2.0
2014-Jul-20 20:34N 35°27' E 139°38'0 0.1
2014-Jul-20 19:34N 35°27' E 139°38'0 0.0
2014-Jul-20 18:34N 35°27' E 139°38'0 0.0
2014-Jul-20 17:34N 35°27' E 139°38'0 0.0
2014-Jul-20 16:34N 35°27' E 139°38'0 0.0
2014-Jul-20 15:34N 35°27' E 139°38'0 0.0
2014-Jul-20 14:33N 35°27' E 139°38'0 0.0
2014-Jul-20 13:33N 35°27' E 139°38'0 0.0
2014-Jul-20 12:34N 35°27' E 139°38'0 0.0
2014-Jul-20 11:33N 35°27' E 139°38'0 0.0
2014-Jul-20 10:34N 35°27' E 139°38'0 0.0
2014-Jul-20 09:34N 35°27' E 139°38'0 0.0
2014-Jul-20 08:34N 35°27' E 139°38'0 0.0
2014-Jul-20 07:34N 35°27' E 139°38'0 0.0
2014-Jul-20 06:34N 35°27' E 139°38'0 0.0
2014-Jul-20 05:33N 35°27' E 139°38'0 0.0
2014-Jul-20 04:33N 35°27' E 139°38'0 0.0
2014-Jul-20 03:34N 35°27' E 139°38'0 0.0
2014-Jul-20 02:33N 35°27' E 139°38'0 0.0
2014-Jul-20 01:34N 35°27' E 139°38'0 0.0
2014-Jul-20 00:33N 35°27' E 139°38'0 0.0
2014-Jul-19 23:33N 35°27' E 139°38'0 0.0
2014-Jul-19 22:33N 35°27' E 139°38'0 0.0
2014-Jul-19 21:33N 35°27' E 139°38'0 0.0
2014-Jul-19 20:34N 35°27' E 139°38'0 0.0
2014-Jul-19 19:34N 35°27' E 139°38'0 0.0
2014-Jul-19 18:34N 35°27' E 139°38'0 0.0
2014-Jul-19 17:34N 35°27' E 139°38'0 0.0
2014-Jul-19 16:34N 35°27' E 139°38'0 0.0
2014-Jul-19 15:34N 35°27' E 139°38'0 0.0
2014-Jul-19 14:33N 35°27' E 139°38'0 0.0
2014-Jul-19 13:33N 35°27' E 139°38'0 0.0
2014-Jul-19 12:33N 35°27' E 139°38'0 0.0
2014-Jul-19 11:34N 35°27' E 139°38'0 0.0
2014-Jul-19 10:34N 35°27' E 139°38'0 0.0
2014-Jul-19 09:34N 35°27' E 139°38'0 0.0
2014-Jul-19 08:33N 35°27' E 139°38'0 0.0
2014-Jul-19 07:34N 35°27' E 139°38'0 0.0
2014-Jul-19 06:33N 35°27' E 139°38'0 0.0
2014-Jul-19 05:34N 35°27' E 139°38'0 0.0
2014-Jul-19 04:34N 35°27' E 139°38'0 0.0
2014-Jul-19 03:34N 35°27' E 139°38'0 0.0
2014-Jul-19 02:34N 35°27' E 139°38'0 0.0
2014-Jul-19 01:33N 35°27' E 139°38'0 0.0
2014-Jul-19 00:34N 35°27' E 139°38'0 0.0
2014-Jul-18 23:34N 35°27' E 139°38'0 0.0
2014-Jul-18 22:33N 35°27' E 139°38'0 0.0
2014-Jul-18 21:34N 35°27' E 139°38'0 0.0
2014-Jul-18 20:34N 35°27' E 139°38'  
Track history (hours):
 
Tides and Currents Weather Stations Pressure Air Temp Water Temp Dewpoint Dewpoint Depression Visibility Wind Speed Wind Dir Waves Ship Positions

Awaji Maru

Last reported at 2014-Jul-28 20:33 UTC. Time now 2014-Jul-28 20:36 UTC.
Position N 35°27' E 139°38'.

Length 37 m; draft 3 m.

Type: Tug. MMSI: 431001074.

Date/timePositionNaut miles runAvg speedWind from/ knotsBaromVisibWave heightAir tempDewpointWater temp
2014-Jul-28 20:33N 35°27' E 139°38'0 0.0
2014-Jul-28 19:33N 35°27' E 139°38'0 0.0
2014-Jul-28 18:33N 35°27' E 139°38'0 0.0
2014-Jul-28 17:33N 35°27' E 139°38'0 0.0
2014-Jul-28 16:33N 35°27' E 139°38'0 0.0
2014-Jul-28 15:33N 35°27' E 139°38'0 0.0
2014-Jul-28 14:33N 35°27' E 139°38'0 0.0
2014-Jul-28 13:33N 35°27' E 139°38'0 0.0
2014-Jul-28 12:33N 35°27' E 139°38'0 0.0
2014-Jul-28 11:33N 35°27' E 139°38'0 0.0
2014-Jul-28 10:33N 35°27' E 139°38'1 1.3
2014-Jul-28 09:33N 35°27' E 139°40'6 5.9
2014-Jul-28 08:33N 35°30' E 139°47'1 1.3
2014-Jul-28 07:34N 35°29' E 139°46'3 2.8
2014-Jul-28 06:33N 35°27' E 139°43'2 2.0
2014-Jul-28 05:33N 35°26' E 139°41'2 2.3
2014-Jul-28 04:34N 35°27' E 139°38'0 0.0
2014-Jul-28 03:34N 35°27' E 139°38'0 0.0
2014-Jul-28 02:34N 35°27' E 139°38'0 0.0
2014-Jul-28 01:33N 35°27' E 139°38'0 0.0
2014-Jul-28 00:33N 35°27' E 139°38'0 0.0
2014-Jul-27 23:34N 35°27' E 139°38'2 2.2
2014-Jul-27 22:34N 35°28' E 139°41'4 3.6
2014-Jul-27 21:34N 35°26' E 139°45'5 4.8
2014-Jul-27 20:34N 35°27' E 139°39'1 0.5
2014-Jul-27 19:33N 35°27' E 139°39'0 0.0
2014-Jul-27 18:33N 35°27' E 139°39'0 0.0
2014-Jul-27 17:33N 35°27' E 139°39'0 0.0
2014-Jul-27 16:34N 35°27' E 139°39'0 0.0
2014-Jul-27 15:33N 35°27' E 139°39'0 0.0
2014-Jul-27 14:34N 35°27' E 139°39'0 0.0
2014-Jul-27 13:34N 35°27' E 139°39'0 0.0
2014-Jul-27 12:33N 35°27' E 139°39'4 3.5
2014-Jul-27 11:34N 35°27' E 139°43'2 2.1
2014-Jul-27 10:34N 35°29' E 139°45'2 2.2
2014-Jul-27 09:34N 35°27' E 139°46'2 2.2
2014-Jul-27 08:34N 35°29' E 139°44'1 1.3
2014-Jul-27 07:33N 35°29' E 139°46'2 2.0
2014-Jul-27 06:34N 35°31' E 139°46'1 1.0
2014-Jul-27 05:34N 35°30' E 139°46'2 2.5
2014-Jul-27 04:33N 35°28' E 139°44'0 0.0
2014-Jul-27 03:33N 35°28' E 139°44'2 2.4
2014-Jul-27 02:34N 35°26' E 139°46'3 2.9
2014-Jul-27 01:34N 35°27' E 139°42'0 0.1
2014-Jul-27 00:34N 35°27' E 139°42'1 0.6
2014-Jul-26 23:33N 35°28' E 139°42'1 0.6
2014-Jul-26 22:33N 35°27' E 139°42'0 0.0
2014-Jul-26 21:34N 35°27' E 139°42'1 1.0
2014-Jul-26 20:34N 35°27' E 139°41'2 2.0
2014-Jul-26 19:34N 35°27' E 139°39'0 0.0
2014-Jul-26 18:34N 35°27' E 139°39'0 0.0
2014-Jul-26 17:34N 35°27' E 139°39'0 0.0
2014-Jul-26 16:34N 35°27' E 139°39'0 0.0
2014-Jul-26 15:33N 35°27' E 139°39'0 0.0
2014-Jul-26 14:33N 35°27' E 139°39'0 0.0
2014-Jul-26 13:34N 35°27' E 139°39'0 0.0
2014-Jul-26 12:34N 35°27' E 139°39'0 0.1
2014-Jul-26 11:34N 35°27' E 139°38'2 2.4
2014-Jul-26 10:34N 35°26' E 139°41'1 1.4
2014-Jul-26 09:34N 35°28' E 139°41'1 0.9
2014-Jul-26 08:34N 35°28' E 139°42'1 1.2
2014-Jul-26 07:34N 35°28' E 139°40'0 0.2
2014-Jul-26 06:34N 35°28' E 139°40'0 0.2
2014-Jul-26 05:34N 35°28' E 139°41'0 0.4
2014-Jul-26 04:33N 35°27' E 139°41'2 2.2
2014-Jul-26 03:34N 35°25' E 139°42'1 0.5
2014-Jul-26 02:34N 35°26' E 139°41'2 1.7
2014-Jul-26 01:34N 35°24' E 139°41'3 3.4
2014-Jul-26 00:33N 35°27' E 139°40'0 0.2
2014-Jul-25 23:34N 35°28' E 139°41'0 0.0
2014-Jul-25 22:34N 35°28' E 139°41'0 0.0
2014-Jul-25 21:33N 35°28' E 139°41'2 1.7
2014-Jul-25 20:34N 35°27' E 139°38'0 0.0
2014-Jul-25 19:33N 35°27' E 139°38'0 0.0
2014-Jul-25 18:33N 35°27' E 139°38'0 0.0
2014-Jul-25 17:33N 35°27' E 139°38'0 0.0
2014-Jul-25 16:34N 35°27' E 139°38'0 0.0
2014-Jul-25 15:34N 35°27' E 139°38'0 0.0
2014-Jul-25 14:34N 35°27' E 139°38'0 0.0
2014-Jul-25 13:34N 35°27' E 139°38'0 0.0
2014-Jul-25 12:33N 35°27' E 139°38'0 0.0
2014-Jul-25 11:34N 35°27' E 139°38'0 0.0
2014-Jul-25 10:33N 35°27' E 139°38'2 2.0
2014-Jul-25 09:33N 35°27' E 139°41'2 2.5
2014-Jul-25 08:34N 35°26' E 139°44'2 1.6
2014-Jul-25 07:34N 35°27' E 139°42'0 0.0
2014-Jul-25 06:34N 35°27' E 139°42'2 2.1
2014-Jul-25 05:34N 35°25' E 139°41'2 1.8
2014-Jul-25 04:33N 35°26' E 139°42'2 2.4
2014-Jul-25 03:34N 35°28' E 139°44'1 1.0
2014-Jul-25 02:33N 35°27' E 139°44'2 1.5
2014-Jul-25 01:34N 35°29' E 139°46'2 2.3
2014-Jul-25 00:33N 35°31' E 139°46'1 0.7
2014-Jul-24 23:34N 35°31' E 139°46'7 7.1
2014-Jul-24 22:34N 35°28' E 139°39'0 0.1
2014-Jul-24 21:33N 35°27' E 139°38'0 0.0
2014-Jul-24 20:34N 35°27' E 139°38'0 0.0
2014-Jul-24 19:34N 35°27' E 139°38'0 0.0
2014-Jul-24 18:34N 35°27' E 139°38'0 0.0
2014-Jul-24 17:34N 35°27' E 139°38'0 0.0
2014-Jul-24 16:34N 35°27' E 139°38'0 0.0
2014-Jul-24 15:34N 35°27' E 139°38'0 0.0
2014-Jul-24 14:34N 35°27' E 139°38'0 0.0
2014-Jul-24 13:34N 35°27' E 139°38'0 0.0
2014-Jul-24 12:34N 35°27' E 139°38'0 0.0
2014-Jul-24 11:34N 35°27' E 139°38'0 0.0
2014-Jul-24 10:33N 35°27' E 139°38'0 0.0
2014-Jul-24 09:34N 35°27' E 139°38'2 2.3
2014-Jul-24 08:33N 35°27' E 139°41'3 3.1
2014-Jul-24 07:33N 35°25' E 139°39'2 1.8
2014-Jul-24 06:34N 35°24' E 139°40'1 1.3
2014-Jul-24 05:34N 35°22' E 139°41'6 5.6
2014-Jul-24 04:33N 35°28' E 139°42'2 1.7
2014-Jul-24 03:34N 35°27' E 139°43'2 2.5
2014-Jul-24 02:33N 35°28' E 139°40'0 0.0
2014-Jul-24 01:34N 35°28' E 139°40'0 0.0
2014-Jul-24 00:34N 35°28' E 139°40'0 0.0
2014-Jul-23 23:34N 35°28' E 139°40'3 2.7
2014-Jul-23 22:33N 35°29' E 139°43'3 2.9
2014-Jul-23 21:34N 35°27' E 139°45'5 4.6
2014-Jul-23 20:34N 35°27' E 139°39'1 0.5
2014-Jul-23 19:34N 35°27' E 139°39'0 0.0
2014-Jul-23 18:34N 35°27' E 139°39'0 0.0
2014-Jul-23 17:33N 35°27' E 139°39'0 0.0
2014-Jul-23 16:33N 35°27' E 139°39'0 0.0
2014-Jul-23 15:33N 35°27' E 139°39'0 0.0
2014-Jul-23 14:34N 35°27' E 139°39'0 0.0
2014-Jul-23 13:34N 35°27' E 139°39'0 0.0
2014-Jul-23 12:34N 35°27' E 139°39'1 0.8
2014-Jul-23 11:34N 35°27' E 139°40'2 1.9
2014-Jul-23 10:34N 35°26' E 139°43'3 2.6
2014-Jul-23 09:34N 35°27' E 139°39'0 0.0
2014-Jul-23 08:33N 35°27' E 139°39'2 1.6
2014-Jul-23 07:34N 35°27' E 139°41'1 1.1
2014-Jul-23 06:34N 35°28' E 139°40'0 0.1
2014-Jul-23 05:34N 35°28' E 139°40'0 0.0
2014-Jul-23 04:33N 35°28' E 139°40'2 1.8
2014-Jul-23 03:34N 35°29' E 139°42'4 4.0
2014-Jul-23 02:34N 35°31' E 139°46'2 2.0
2014-Jul-23 01:34N 35°30' E 139°47'4 4.4
2014-Jul-23 00:34N 35°27' E 139°43'2 2.2
2014-Jul-22 23:34N 35°28' E 139°40'1 1.5
2014-Jul-22 22:34N 35°28' E 139°39'0 0.2
2014-Jul-22 21:33N 35°27' E 139°38'0 0.0
2014-Jul-22 20:33N 35°27' E 139°38'0 0.0
2014-Jul-22 19:34N 35°27' E 139°38'0 0.0
2014-Jul-22 18:34N 35°27' E 139°38'0 0.0
2014-Jul-22 17:34N 35°27' E 139°38'0 0.0
2014-Jul-22 16:34N 35°27' E 139°38'0 0.0
2014-Jul-22 15:34N 35°27' E 139°38'0 0.0
2014-Jul-22 14:34N 35°27' E 139°38'0 0.0
2014-Jul-22 13:34N 35°27' E 139°38'0 0.0
2014-Jul-22 12:33N 35°27' E 139°38'0 0.0
2014-Jul-22 11:34N 35°27' E 139°38'0 0.0
2014-Jul-22 10:34N 35°27' E 139°38'0 0.0
2014-Jul-22 09:34N 35°27' E 139°38'0 0.0
2014-Jul-22 08:33N 35°27' E 139°38'0 0.4
2014-Jul-22 07:34N 35°28' E 139°39'6 6.3
2014-Jul-22 06:34N 35°30' E 139°46'4 4.3
2014-Jul-22 05:34N 35°27' E 139°43'2 1.7
2014-Jul-22 04:34N 35°28' E 139°44'0 0.2
2014-Jul-22 03:34N 35°28' E 139°44'1 1.5
2014-Jul-22 02:33N 35°27' E 139°45'2 1.6
2014-Jul-22 01:33N 35°28' E 139°44'0 0.3
2014-Jul-22 00:33N 35°28' E 139°43'3 3.3
2014-Jul-21 23:34N 35°27' E 139°39'0 0.0
2014-Jul-21 22:33N 35°27' E 139°39'0 0.0
2014-Jul-21 21:33N 35°27' E 139°39'1 0.8
2014-Jul-21 20:34N 35°27' E 139°38'0 0.0
2014-Jul-21 20:18N 35°27' E 139°38'0 0.0
2014-Jul-21 19:34N 35°27' E 139°38'0 0.0
2014-Jul-21 18:34N 35°27' E 139°38'0 0.0
2014-Jul-21 17:33N 35°27' E 139°38'0 0.0
2014-Jul-21 16:34N 35°27' E 139°38'0 0.0
2014-Jul-21 15:34N 35°27' E 139°38'0 0.0
2014-Jul-21 14:34N 35°27' E 139°38'0 0.0
2014-Jul-21 13:34N 35°27' E 139°38'0 0.0
2014-Jul-21 12:34N 35°27' E 139°38'0 0.0
2014-Jul-21 11:34N 35°27' E 139°38'0 0.0
2014-Jul-21 10:34N 35°27' E 139°38'0 0.0
2014-Jul-21 09:33N 35°27' E 139°38'0 0.0
2014-Jul-21 08:33N 35°27' E 139°38'0 0.0
2014-Jul-21 07:33N 35°27' E 139°38'3 2.7
2014-Jul-21 06:33N 35°25' E 139°39'2 2.2
2014-Jul-21 05:33N 35°23' E 139°41'0 0.4
2014-Jul-21 04:34N 35°23' E 139°40'0 0.0
2014-Jul-21 03:34N 35°23' E 139°40'0 0.0
2014-Jul-21 02:34N 35°23' E 139°40'5 5.2
2014-Jul-21 01:34N 35°28' E 139°43'0 0.1
2014-Jul-21 00:33N 35°28' E 139°43'1 1.4
2014-Jul-20 23:33N 35°26' E 139°44'2 1.7
2014-Jul-20 22:34N 35°27' E 139°42'1 1.0
2014-Jul-20 21:34N 35°27' E 139°41'2 2.0
2014-Jul-20 20:34N 35°27' E 139°38'0 0.1
2014-Jul-20 19:34N 35°27' E 139°38'0 0.0
2014-Jul-20 18:34N 35°27' E 139°38'0 0.0
2014-Jul-20 17:34N 35°27' E 139°38'0 0.0
2014-Jul-20 16:34N 35°27' E 139°38'0 0.0
2014-Jul-20 15:34N 35°27' E 139°38'0 0.0
2014-Jul-20 14:33N 35°27' E 139°38'0 0.0
2014-Jul-20 13:33N 35°27' E 139°38'0 0.0
2014-Jul-20 12:34N 35°27' E 139°38'0 0.0
2014-Jul-20 11:33N 35°27' E 139°38'0 0.0
2014-Jul-20 10:34N 35°27' E 139°38'0 0.0
2014-Jul-20 09:34N 35°27' E 139°38'0 0.0
2014-Jul-20 08:34N 35°27' E 139°38'0 0.0
2014-Jul-20 07:34N 35°27' E 139°38'0 0.0
2014-Jul-20 06:34N 35°27' E 139°38'0 0.0
2014-Jul-20 05:33N 35°27' E 139°38'0 0.0
2014-Jul-20 04:33N 35°27' E 139°38'0 0.0
2014-Jul-20 03:34N 35°27' E 139°38'0 0.0
2014-Jul-20 02:33N 35°27' E 139°38'0 0.0
2014-Jul-20 01:34N 35°27' E 139°38'0 0.0
2014-Jul-20 00:33N 35°27' E 139°38'0 0.0
2014-Jul-19 23:33N 35°27' E 139°38'0 0.0
2014-Jul-19 22:33N 35°27' E 139°38'0 0.0
2014-Jul-19 21:33N 35°27' E 139°38'0 0.0
2014-Jul-19 20:34N 35°27' E 139°38'0 0.0
2014-Jul-19 19:34N 35°27' E 139°38'0 0.0
2014-Jul-19 18:34N 35°27' E 139°38'0 0.0
2014-Jul-19 17:34N 35°27' E 139°38'0 0.0
2014-Jul-19 16:34N 35°27' E 139°38'0 0.0
2014-Jul-19 15:34N 35°27' E 139°38'0 0.0
2014-Jul-19 14:33N 35°27' E 139°38'0 0.0
2014-Jul-19 13:33N 35°27' E 139°38'0 0.0
2014-Jul-19 12:33N 35°27' E 139°38'0 0.0
2014-Jul-19 11:34N 35°27' E 139°38'0 0.0
2014-Jul-19 10:34N 35°27' E 139°38'0 0.0
2014-Jul-19 09:34N 35°27' E 139°38'0 0.0
2014-Jul-19 08:33N 35°27' E 139°38'0 0.0
2014-Jul-19 07:34N 35°27' E 139°38'0 0.0
2014-Jul-19 06:33N 35°27' E 139°38'0 0.0
2014-Jul-19 05:34N 35°27' E 139°38'0 0.0
2014-Jul-19 04:34N 35°27' E 139°38'0 0.0
2014-Jul-19 03:34N 35°27' E 139°38'0 0.0
2014-Jul-19 02:34N 35°27' E 139°38'0 0.0
2014-Jul-19 01:33N 35°27' E 139°38'0 0.0
2014-Jul-19 00:34N 35°27' E 139°38'0 0.0
2014-Jul-18 23:34N 35°27' E 139°38'0 0.0
2014-Jul-18 22:33N 35°27' E 139°38'0 0.0
2014-Jul-18 21:34N 35°27' E 139°38'0 0.0
2014-Jul-18 20:34N 35°27' E 139°38'  

Dump ship's entire track history